Weather at Mostar International Airport

Public forecast

Using degrees Celsius for public forecast. Weather courtesy of forecast.io.

Current aviation weather report (METAR) for Mostar International Airport

Report is more than 6 hours old.

Retrieved 2022/09/17 19:00 UTC (8 days ago):

LQMO 171900Z VRB06KT 9999 SCT050 BKN070 18/10 Q1001

Aviation forecast (TAF) for Mostar International Airport

Forecast is more than 12 hours old.

Retrieved 2022/09/17 18:10 UTC (8 days ago):

TAF LQMO 171700Z 1718/1818 33012KT 9999 SCT050 TX24/1813Z TN10/1805Z TEMPO 1718/1720 20015G25KT 4000 TSRA FEW035CB BKN040 TEMPO 1718/1803 01017G30KT